createdAt,value
2022-09-16T00:00:09.083Z,13.10
2022-09-16T00:01:09.155Z,13.10
2022-09-16T00:02:09.162Z,13.10
2022-09-16T00:03:09.045Z,12.79
2022-09-16T00:04:09.036Z,13.10
2022-09-16T00:05:09.026Z,13.40
2022-09-16T00:06:09.017Z,13.10
2022-09-16T00:07:09.145Z,13.40
2022-09-16T00:08:08.994Z,13.30
2022-09-16T00:09:08.979Z,13.30
2022-09-16T00:10:08.971Z,13.40
2022-09-16T00:11:08.957Z,13.71
2022-09-16T00:12:08.946Z,13.51
2022-09-16T00:13:08.936Z,13.20
2022-09-16T00:14:08.927Z,13.41
2022-09-16T00:15:08.915Z,13.31
2022-09-16T00:16:08.943Z,13.20
2022-09-16T00:17:08.889Z,13.10
2022-09-16T00:18:08.914Z,12.99
2022-09-16T00:19:08.868Z,12.89
2022-09-16T00:20:08.863Z,12.99
2022-09-16T00:21:08.845Z,12.79
2022-09-16T00:22:08.834Z,12.79
2022-09-16T00:23:08.828Z,12.79
2022-09-16T00:24:08.813Z,12.79
2022-09-16T00:25:08.805Z,12.79
2022-09-16T00:26:08.794Z,12.68
2022-09-16T00:27:08.775Z,12.68
2022-09-16T00:28:08.769Z,12.68
2022-09-16T00:29:08.758Z,12.59
2022-09-16T00:30:08.748Z,12.68
2022-09-16T00:31:08.790Z,12.58
2022-09-16T00:32:08.724Z,12.48
2022-09-16T00:33:08.710Z,12.48
2022-09-16T00:34:08.730Z,12.37
2022-09-16T00:35:08.692Z,12.37
2022-09-16T00:36:08.680Z,12.27
2022-09-16T00:37:08.668Z,12.27
2022-09-16T00:38:08.657Z,12.07
2022-09-16T00:39:08.645Z,11.96
2022-09-16T00:40:08.723Z,11.76
2022-09-16T00:41:08.621Z,11.86
2022-09-16T00:42:08.611Z,11.86
2022-09-16T00:43:08.599Z,11.86
2022-09-16T00:44:08.589Z,11.86
2022-09-16T00:45:08.576Z,11.86
2022-09-16T00:46:08.569Z,11.76
2022-09-16T00:47:08.624Z,11.86
2022-09-16T00:48:08.547Z,11.96
2022-09-16T00:49:08.537Z,11.86
2022-09-16T00:50:08.550Z,11.86
2022-09-16T00:51:08.510Z,11.96
2022-09-16T00:52:08.499Z,11.96
2022-09-16T00:53:08.492Z,12.07
2022-09-16T00:54:08.481Z,12.17
2022-09-16T00:55:08.465Z,12.17
2022-09-16T00:56:08.459Z,12.17
2022-09-16T00:57:08.444Z,12.17
2022-09-16T00:58:08.433Z,12.27
2022-09-16T00:59:08.424Z,12.27
2022-09-16T01:00:08.412Z,12.37
2022-09-16T01:01:08.437Z,12.07
2022-09-16T01:02:08.491Z,12.17
2022-09-16T01:03:08.377Z,12.48
2022-09-16T01:04:08.367Z,12.07
2022-09-16T01:05:08.354Z,12.38
2022-09-16T01:06:08.375Z,12.48
2022-09-16T01:07:08.334Z,12.38
2022-09-16T01:08:08.322Z,12.48
2022-09-16T01:09:08.315Z,12.38
2022-09-16T01:10:08.298Z,12.38
2022-09-16T01:11:08.291Z,12.48
2022-09-16T01:12:08.281Z,12.38
2022-09-16T01:13:08.267Z,12.38
2022-09-16T01:14:08.258Z,12.48
2022-09-16T01:15:08.251Z,12.48
2022-09-16T01:16:08.319Z,12.27
2022-09-16T01:17:08.220Z,12.27
2022-09-16T01:18:08.211Z,12.18
2022-09-16T01:19:08.200Z,12.27
2022-09-16T01:20:08.189Z,12.18
2022-09-16T01:21:08.181Z,12.18
2022-09-16T01:22:08.195Z,12.07
2022-09-16T01:23:08.156Z,12.07
2022-09-16T01:24:08.153Z,11.96
2022-09-16T01:25:08.137Z,11.96
2022-09-16T01:26:08.128Z,11.96
2022-09-16T01:27:08.116Z,11.96
2022-09-16T01:28:08.106Z,11.96
2022-09-16T01:29:08.093Z,11.97
2022-09-16T01:30:08.084Z,11.97
2022-09-16T01:31:08.137Z,11.86
2022-09-16T01:32:08.063Z,11.96
2022-09-16T01:33:08.049Z,11.76
2022-09-16T01:34:08.040Z,11.86
2022-09-16T01:35:08.027Z,11.86
2022-09-16T01:36:08.018Z,11.76
2022-09-16T01:37:08.003Z,11.76
2022-09-16T01:38:08.022Z,11.76
2022-09-16T01:39:07.983Z,11.76
2022-09-16T01:40:08.047Z,11.76
2022-09-16T01:41:07.961Z,11.76
2022-09-16T01:42:07.950Z,11.76
2022-09-16T01:43:07.940Z,11.76
2022-09-16T01:44:07.930Z,11.77
2022-09-16T01:45:07.919Z,11.77
2022-09-16T01:46:07.954Z,11.66
2022-09-16T01:47:07.893Z,11.77
2022-09-16T01:48:07.890Z,11.87
2022-09-16T01:49:07.871Z,11.97
2022-09-16T01:50:07.860Z,11.87
2022-09-16T01:51:07.848Z,11.87
2022-09-16T01:52:07.836Z,11.87
2022-09-16T01:53:07.826Z,11.97
2022-09-16T01:54:07.846Z,11.97
2022-09-16T01:55:07.807Z,12.07
2022-09-16T01:56:07.795Z,12.08
2022-09-16T01:57:07.787Z,12.28
2022-09-16T01:58:07.816Z,12.18
2022-09-16T01:59:07.871Z,12.18
2022-09-16T02:00:07.759Z,12.28
2022-09-16T02:01:07.737Z,12.28
2022-09-16T02:02:07.902Z,12.38
2022-09-16T02:03:07.714Z,12.38
2022-09-16T02:04:07.704Z,12.38
2022-09-16T02:05:07.691Z,12.28
2022-09-16T02:06:07.682Z,12.28
2022-09-16T02:07:07.671Z,12.28
2022-09-16T02:08:07.659Z,12.28
2022-09-16T02:09:07.651Z,12.18
2022-09-16T02:10:07.659Z,12.38
2022-09-16T02:11:07.625Z,12.28
2022-09-16T02:12:07.615Z,12.18
2022-09-16T02:13:07.602Z,12.08
2022-09-16T02:14:07.593Z,12.18
2022-09-16T02:15:07.580Z,12.18
2022-09-16T02:16:07.646Z,12.07
2022-09-16T02:17:07.561Z,11.97
2022-09-16T02:18:07.559Z,11.97
2022-09-16T02:19:07.534Z,11.77
2022-09-16T02:20:07.526Z,11.77
2022-09-16T02:21:07.512Z,11.77
2022-09-16T02:22:07.504Z,11.66
2022-09-16T02:23:07.492Z,11.66
2022-09-16T02:24:07.485Z,11.56
2022-09-16T02:25:07.470Z,11.46
2022-09-16T02:26:07.486Z,11.46
2022-09-16T02:27:07.448Z,11.55
2022-09-16T02:28:07.444Z,11.46
2022-09-16T02:29:07.425Z,11.46
2022-09-16T02:30:07.414Z,11.45
2022-09-16T02:31:07.518Z,11.35
2022-09-16T02:32:07.396Z,11.35
2022-09-16T02:33:07.379Z,11.25
2022-09-16T02:34:07.372Z,11.25
2022-09-16T02:35:07.360Z,11.25
2022-09-16T02:36:07.351Z,11.25
2022-09-16T02:37:07.333Z,11.25
2022-09-16T02:38:07.325Z,11.25
2022-09-16T02:39:07.312Z,11.25
2022-09-16T02:40:07.408Z,11.25
2022-09-16T02:41:07.289Z,11.25
2022-09-16T02:42:07.304Z,11.25
2022-09-16T02:43:07.267Z,11.25
2022-09-16T02:44:07.266Z,11.35
2022-09-16T02:45:07.246Z,11.35
2022-09-16T02:46:07.297Z,11.26
2022-09-16T02:47:07.227Z,11.46
2022-09-16T02:48:07.218Z,11.57
2022-09-16T02:49:07.202Z,11.46
2022-09-16T02:50:07.191Z,11.67
2022-09-16T02:51:07.179Z,11.77
2022-09-16T02:52:07.171Z,11.77
2022-09-16T02:53:07.158Z,11.77
2022-09-16T02:54:07.147Z,11.87
2022-09-16T02:55:07.135Z,11.87
2022-09-16T02:56:07.126Z,11.77
2022-09-16T02:57:07.112Z,11.88
2022-09-16T02:58:07.126Z,11.98
2022-09-16T02:59:07.095Z,11.88
2022-09-16T03:00:07.080Z,12.08
2022-09-16T03:01:07.067Z,12.08
2022-09-16T03:02:07.100Z,12.18
2022-09-16T03:03:07.090Z,12.08
2022-09-16T03:04:07.036Z,12.08
2022-09-16T03:05:07.022Z,11.98
2022-09-16T03:06:07.016Z,11.98
2022-09-16T03:07:06.999Z,12.08
2022-09-16T03:08:06.991Z,12.08
2022-09-16T03:09:06.981Z,12.08
2022-09-16T03:10:06.970Z,11.98
2022-09-16T03:11:06.955Z,12.08
2022-09-16T03:12:06.947Z,11.98
2022-09-16T03:13:06.933Z,12.29
2022-09-16T03:14:06.945Z,12.29
2022-09-16T03:15:06.919Z,12.08
2022-09-16T03:16:07.029Z,12.08
2022-09-16T03:17:06.889Z,12.18
2022-09-16T03:18:06.879Z,12.18
2022-09-16T03:19:06.865Z,12.29
2022-09-16T03:20:06.857Z,12.29
2022-09-16T03:21:06.844Z,12.29
2022-09-16T03:22:06.834Z,12.29
2022-09-16T03:23:06.824Z,12.18
2022-09-16T03:24:06.812Z,12.29
2022-09-16T03:25:06.800Z,12.29
2022-09-16T03:26:06.791Z,12.28
2022-09-16T03:27:06.778Z,12.18
2022-09-16T03:28:06.766Z,12.18
2022-09-16T03:29:06.754Z,12.18
2022-09-16T03:30:06.769Z,12.18
2022-09-16T03:31:06.766Z,11.98
2022-09-16T03:32:06.723Z,11.98
2022-09-16T03:33:06.711Z,11.98
2022-09-16T03:34:06.700Z,11.87
2022-09-16T03:35:06.690Z,11.77
2022-09-16T03:36:06.679Z,11.77
2022-09-16T03:37:06.665Z,11.77
2022-09-16T03:38:06.655Z,11.67
2022-09-16T03:39:06.642Z,11.66
2022-09-16T03:40:06.720Z,11.56
2022-09-16T03:41:06.627Z,11.46
2022-09-16T03:42:06.611Z,11.46
2022-09-16T03:43:06.599Z,11.46
2022-09-16T03:44:06.595Z,11.35
2022-09-16T03:45:06.580Z,11.35
2022-09-16T03:46:06.631Z,11.35
2022-09-16T03:47:06.555Z,11.25
2022-09-16T03:48:06.544Z,11.25
2022-09-16T03:49:06.532Z,11.15
2022-09-16T03:50:06.521Z,11.35
2022-09-16T03:51:06.510Z,11.26
2022-09-16T03:52:06.498Z,11.16
2022-09-16T03:53:06.487Z,11.16
2022-09-16T03:54:06.479Z,11.26
2022-09-16T03:55:06.464Z,11.26
2022-09-16T03:56:06.454Z,11.26
2022-09-16T03:57:06.442Z,11.57
2022-09-16T03:58:06.434Z,11.46
2022-09-16T03:59:06.425Z,11.68
2022-09-16T04:00:06.659Z,11.68
2022-09-16T04:01:06.490Z,11.67
2022-09-16T04:02:06.472Z,11.67
2022-09-16T04:03:06.430Z,11.57
2022-09-16T04:04:06.390Z,11.68
2022-09-16T04:05:06.411Z,11.57
2022-09-16T04:06:06.390Z,11.68
2022-09-16T04:07:06.368Z,11.88
2022-09-16T04:08:06.344Z,11.77
2022-09-16T04:09:06.428Z,11.68
2022-09-16T04:10:06.316Z,11.87
2022-09-16T04:11:06.287Z,11.67
2022-09-16T04:12:06.278Z,11.67
2022-09-16T04:13:06.272Z,11.87
2022-09-16T04:14:06.254Z,11.77
2022-09-16T04:15:06.244Z,11.77
2022-09-16T04:16:06.304Z,11.77
2022-09-16T04:17:06.222Z,11.77
2022-09-16T04:18:06.235Z,11.67
2022-09-16T04:19:06.198Z,11.57
2022-09-16T04:20:06.186Z,11.67
2022-09-16T04:21:06.378Z,11.67
2022-09-16T04:22:06.164Z,11.46
2022-09-16T04:23:06.154Z,11.26
2022-09-16T04:24:09.512Z,11.46
2022-09-16T04:25:06.136Z,11.36
2022-09-16T04:26:06.129Z,11.26
2022-09-16T04:27:06.108Z,11.16
2022-09-16T04:28:06.094Z,11.36
2022-09-16T04:29:06.086Z,11.36
2022-09-16T04:30:06.076Z,11.26
2022-09-16T04:31:06.138Z,11.26
2022-09-16T04:32:06.055Z,11.36
2022-09-16T04:33:06.042Z,11.26
2022-09-16T04:34:06.087Z,11.36
2022-09-16T04:35:06.022Z,11.36
2022-09-16T04:36:06.333Z,11.26
2022-09-16T04:37:05.999Z,11.26
2022-09-16T04:38:05.986Z,11.26
2022-09-16T04:39:05.976Z,11.26
2022-09-16T04:40:06.000Z,11.36
2022-09-16T04:41:05.958Z,11.16
2022-09-16T04:42:05.941Z,11.36
2022-09-16T04:43:05.931Z,11.26
2022-09-16T04:44:05.919Z,11.36
2022-09-16T04:45:05.912Z,11.36
2022-09-16T04:46:05.935Z,11.36
2022-09-16T04:47:05.886Z,11.36
2022-09-16T04:48:05.874Z,11.36
2022-09-16T04:49:05.865Z,11.36
2022-09-16T04:50:05.877Z,11.26
2022-09-16T04:51:05.844Z,11.26
2022-09-16T04:52:05.829Z,11.26
2022-09-16T04:53:05.821Z,11.16
2022-09-16T04:54:05.807Z,11.16
2022-09-16T04:55:05.799Z,11.26
2022-09-16T04:56:05.786Z,11.26
2022-09-16T04:57:05.780Z,11.16
2022-09-16T04:58:05.763Z,11.26
2022-09-16T04:59:05.753Z,11.16
2022-09-16T05:00:05.740Z,11.26
2022-09-16T05:01:05.787Z,11.26
2022-09-16T05:02:05.718Z,11.26
2022-09-16T05:03:05.745Z,11.26
2022-09-16T05:04:05.695Z,11.26
2022-09-16T05:05:05.687Z,11.36
2022-09-16T05:06:05.702Z,11.47
2022-09-16T05:07:05.668Z,11.47
2022-09-16T05:08:05.652Z,11.47
2022-09-16T05:09:05.645Z,11.57
2022-09-16T05:10:05.630Z,11.68
2022-09-16T05:11:05.619Z,11.47
2022-09-16T05:12:05.607Z,11.78
2022-09-16T05:13:05.596Z,11.68
2022-09-16T05:14:05.587Z,11.37
2022-09-16T05:15:05.574Z,11.78
2022-09-16T05:16:05.637Z,11.58
2022-09-16T05:17:05.550Z,11.68
2022-09-16T05:18:05.543Z,11.77
2022-09-16T05:19:05.531Z,11.77
2022-09-16T05:20:05.518Z,11.68
2022-09-16T05:21:05.506Z,11.57
2022-09-16T05:22:05.614Z,11.47
2022-09-16T05:23:05.492Z,11.57
2022-09-16T05:24:05.474Z,11.47
2022-09-16T05:25:05.468Z,11.36
2022-09-16T05:26:05.453Z,11.47
2022-09-16T05:27:05.441Z,11.47
2022-09-16T05:28:05.427Z,11.47
2022-09-16T05:29:05.421Z,11.47
2022-09-16T05:30:05.406Z,11.47
2022-09-16T05:31:05.490Z,11.36
2022-09-16T05:32:05.381Z,11.36
2022-09-16T05:33:05.377Z,11.36
2022-09-16T05:34:05.363Z,11.47
2022-09-16T05:35:05.351Z,11.36
2022-09-16T05:36:05.336Z,11.36
2022-09-16T05:37:05.329Z,11.26
2022-09-16T05:38:05.435Z,11.26
2022-09-16T05:39:22.078Z,11.36
2022-09-16T05:40:05.328Z,11.26
2022-09-16T05:41:05.291Z,11.26
2022-09-16T05:42:05.274Z,11.26
2022-09-16T05:43:05.261Z,11.36
2022-09-16T05:44:05.253Z,11.36
2022-09-16T05:45:05.250Z,11.26
2022-09-16T05:46:05.300Z,11.36
2022-09-16T05:47:05.218Z,11.47
2022-09-16T05:48:05.207Z,11.36
2022-09-16T05:49:05.195Z,11.47
2022-09-16T05:50:05.186Z,11.36
2022-09-16T05:51:05.174Z,11.16
2022-09-16T05:52:05.161Z,11.36
2022-09-16T05:53:05.154Z,11.36
2022-09-16T05:54:05.318Z,11.26
2022-09-16T05:55:05.186Z,11.36
2022-09-16T05:56:05.226Z,11.26
2022-09-16T05:57:07.242Z,11.16
2022-09-16T05:58:05.275Z,11.26
2022-09-16T05:59:05.215Z,11.16
2022-09-16T06:00:05.225Z,10.96
2022-09-16T06:01:05.212Z,10.85
2022-09-16T06:02:05.171Z,10.95
2022-09-16T06:03:05.038Z,10.64
2022-09-16T06:04:05.026Z,10.53
2022-09-16T06:05:05.018Z,10.44
2022-09-16T06:06:05.002Z,10.33
2022-09-16T06:07:04.997Z,10.13
2022-09-16T06:08:04.999Z,10.03
2022-09-16T06:09:04.995Z,9.82
2022-09-16T06:10:05.075Z,9.82
2022-09-16T06:11:04.949Z,9.83
2022-09-16T06:12:04.936Z,9.93
2022-09-16T06:13:04.927Z,10.03
2022-09-16T06:14:04.914Z,10.13
2022-09-16T06:15:04.905Z,10.03
2022-09-16T06:16:04.955Z,10.34
2022-09-16T06:17:04.879Z,10.14
2022-09-16T06:18:06.591Z,10.13
2022-09-16T06:19:04.862Z,10.13
2022-09-16T06:20:04.863Z,10.13
2022-09-16T06:21:04.835Z,10.03
2022-09-16T06:22:04.830Z,10.13
2022-09-16T06:23:04.814Z,10.03
2022-09-16T06:24:04.800Z,9.93
2022-09-16T06:25:04.791Z,9.83
2022-09-16T06:26:04.999Z,9.72
2022-09-16T06:27:04.772Z,9.83
2022-09-16T06:28:04.755Z,9.62
2022-09-16T06:29:04.750Z,9.62
2022-09-16T06:30:04.736Z,9.52
2022-09-16T06:31:04.771Z,9.42
2022-09-16T06:32:04.716Z,9.52
2022-09-16T06:33:04.703Z,9.31
2022-09-16T06:34:04.689Z,9.31
2022-09-16T06:35:04.678Z,9.11
2022-09-16T06:36:04.665Z,9.11
2022-09-16T06:37:04.655Z,9.00
2022-09-16T06:38:04.643Z,8.80
2022-09-16T06:39:04.631Z,8.70
2022-09-16T06:40:04.670Z,8.70
2022-09-16T06:41:04.609Z,8.49
2022-09-16T06:42:04.736Z,8.28
2022-09-16T06:43:04.602Z,8.39
2022-09-16T06:44:04.574Z,7.87
2022-09-16T06:45:04.562Z,7.67
2022-09-16T06:46:04.607Z,7.26
2022-09-16T06:47:04.545Z,7.56
2022-09-16T06:48:04.529Z,7.05
2022-09-16T06:49:06.431Z,6.84
2022-09-16T06:50:04.505Z,6.64
2022-09-16T06:51:04.504Z,6.54
2022-09-16T06:52:04.483Z,5.82
2022-09-16T06:53:04.474Z,5.72
2022-09-16T06:54:04.482Z,5.10
2022-09-16T06:55:04.458Z,5.91
2022-09-16T06:56:04.442Z,3.36
2022-09-16T06:57:06.572Z,3.47
2022-09-16T06:58:04.532Z,4.08
2022-09-16T06:59:04.409Z,6.12
2022-09-16T07:00:04.394Z,8.56
2022-09-16T07:01:04.436Z,5.19
2022-09-16T07:02:04.426Z,7.74
2022-09-16T07:03:04.361Z,3.56
2022-09-16T07:04:04.350Z,9.26
2022-09-16T07:05:04.415Z,11.71
2022-09-16T07:06:04.356Z,12.63
2022-09-16T07:07:09.765Z,10.17
2022-09-16T07:08:05.330Z,10.58
2022-09-16T07:09:04.294Z,10.28
2022-09-16T07:10:04.280Z,9.56
2022-09-16T07:11:04.272Z,18.41
2022-09-16T07:12:04.259Z,18.81
2022-09-16T07:13:04.249Z,19.21
2022-09-16T07:14:04.361Z,23.07
2022-09-16T07:15:04.224Z,18.79
2022-09-16T07:16:19.582Z,33.02
2022-09-16T07:17:05.257Z,22.96
2022-09-16T07:18:04.194Z,34.33
2022-09-16T07:19:04.592Z,31.59
2022-09-16T07:20:04.166Z,32.09
2022-09-16T07:21:04.164Z,35.95
2022-09-16T07:22:04.144Z,35.22
2022-09-16T07:23:04.138Z,33.60
2022-09-16T07:24:04.126Z,45.17
2022-09-16T07:25:04.114Z,39.28
2022-09-16T07:26:04.100Z,44.46
2022-09-16T07:27:04.107Z,32.87
2022-09-16T07:28:04.092Z,46.47
2022-09-16T07:29:04.095Z,43.23
2022-09-16T07:30:08.857Z,48.48
2022-09-16T07:31:04.091Z,49.37
2022-09-16T07:32:04.035Z,45.50
2022-09-16T07:33:04.027Z,54.31
2022-09-16T07:34:04.929Z,52.79
2022-09-16T07:35:04.003Z,63.93
2022-09-16T07:36:04.000Z,59.58
2022-09-16T07:37:03.982Z,59.48
2022-09-16T07:38:03.967Z,54.38
2022-09-16T07:39:03.981Z,55.27
2022-09-16T07:40:04.041Z,62.63
2022-09-16T07:41:03.944Z,66.27
2022-09-16T07:42:06.021Z,66.38
2022-09-16T07:43:03.913Z,69.10
2022-09-16T07:44:03.902Z,69.21
2022-09-16T07:45:03.892Z,68.10
2022-09-16T07:46:04.051Z,67.79
2022-09-16T07:47:03.868Z,73.80
2022-09-16T07:48:03.854Z,75.28
2022-09-16T07:49:03.846Z,70.42
2022-09-16T07:50:03.835Z,69.31
2022-09-16T07:51:03.832Z,72.55
2022-09-16T07:52:03.839Z,74.63
2022-09-16T07:53:03.803Z,79.79
2022-09-16T07:54:03.792Z,71.30
2022-09-16T07:55:03.781Z,74.16
2022-09-16T07:56:03.771Z,76.29
2022-09-16T07:57:03.761Z,73.05
2022-09-16T07:58:03.744Z,74.74
2022-09-16T07:59:03.740Z,81.07
2022-09-16T08:00:03.724Z,78.91
2022-09-16T08:01:05.117Z,76.15
2022-09-16T08:02:03.951Z,77.76
2022-09-16T08:03:03.731Z,79.24
2022-09-16T08:04:03.680Z,83.44
2022-09-16T08:05:03.669Z,95.04
2022-09-16T08:06:03.657Z,85.90
2022-09-16T08:07:03.648Z,89.07
2022-09-16T08:08:03.631Z,84.29
2022-09-16T08:09:15.300Z,87.21
2022-09-16T08:10:03.622Z,88.43
2022-09-16T08:11:03.601Z,82.17
2022-09-16T08:12:03.590Z,87.72
2022-09-16T08:13:03.578Z,86.57
2022-09-16T08:14:03.569Z,85.86
2022-09-16T08:15:03.560Z,87.68
2022-09-16T08:16:03.549Z,84.85
2022-09-16T08:17:03.533Z,91.61
2022-09-16T08:18:03.656Z,86.77
2022-09-16T08:19:03.517Z,86.36
2022-09-16T08:20:03.503Z,86.22
2022-09-16T08:21:03.490Z,86.58
2022-09-16T08:22:03.479Z,91.69
2022-09-16T08:23:03.478Z,95.46
2022-09-16T08:24:03.483Z,93.74
2022-09-16T08:25:03.458Z,93.04
2022-09-16T08:26:03.438Z,89.61
2022-09-16T08:27:03.425Z,95.56
2022-09-16T08:28:03.414Z,89.91
2022-09-16T08:29:10.692Z,89.95
2022-09-16T08:30:04.424Z,90.52
2022-09-16T08:31:03.381Z,96.67
2022-09-16T08:32:03.467Z,89.45
2022-09-16T08:33:03.355Z,96.56
2022-09-16T08:34:03.466Z,94.10
2022-09-16T08:35:03.334Z,95.31
2022-09-16T08:36:03.325Z,95.61
2022-09-16T08:37:03.311Z,91.99
2022-09-16T08:38:03.316Z,95.51
2022-09-16T08:39:03.301Z,95.51
2022-09-16T08:40:03.402Z,96.17
2022-09-16T08:41:03.267Z,98.13
2022-09-16T08:42:03.263Z,96.72
2022-09-16T08:43:03.246Z,97.78
2022-09-16T08:44:03.240Z,91.38
2022-09-16T08:45:03.225Z,94.72
2022-09-16T08:46:03.294Z,96.98
2022-09-16T08:47:03.205Z,97.17
2022-09-16T08:48:03.193Z,97.38
2022-09-16T08:49:03.213Z,95.36
2022-09-16T08:50:03.309Z,98.08
2022-09-16T08:51:03.160Z,96.52
2022-09-16T08:52:03.151Z,94.56
2022-09-16T08:53:03.137Z,97.94
2022-09-16T08:54:03.127Z,96.69
2022-09-16T08:55:03.121Z,97.04
2022-09-16T08:56:03.105Z,96.94
2022-09-16T08:57:03.104Z,96.39
2022-09-16T08:58:03.120Z,95.54
2022-09-16T08:59:03.080Z,95.49
2022-09-16T09:00:03.065Z,96.44
2022-09-16T09:01:03.310Z,95.24
2022-09-16T09:02:08.901Z,90.02
2022-09-16T09:03:03.088Z,96.15
2022-09-16T09:04:03.020Z,87.35
2022-09-16T09:05:03.010Z,88.90
2022-09-16T09:06:03.136Z,92.68
2022-09-16T09:07:03.021Z,92.43
2022-09-16T09:08:03.000Z,81.62
2022-09-16T09:09:02.962Z,89.06
2022-09-16T09:10:05.963Z,85.50
2022-09-16T09:11:02.939Z,92.69
2022-09-16T09:12:02.930Z,80.50
2022-09-16T09:13:03.292Z,87.50
2022-09-16T09:14:02.905Z,78.08
2022-09-16T09:15:02.897Z,82.51
2022-09-16T09:16:02.960Z,81.41
2022-09-16T09:17:02.872Z,93.15
2022-09-16T09:18:02.864Z,92.07
2022-09-16T09:19:03.155Z,96.45
2022-09-16T09:20:02.843Z,95.76
2022-09-16T09:21:02.840Z,95.73
2022-09-16T09:22:02.958Z,86.08
2022-09-16T09:23:02.807Z,81.18
2022-09-16T09:24:02.804Z,88.91
2022-09-16T09:25:02.787Z,79.93
2022-09-16T09:26:02.778Z,80.13
2022-09-16T09:27:02.772Z,80.96
2022-09-16T09:28:02.806Z,79.12
2022-09-16T09:29:02.744Z,68.46
2022-09-16T09:30:02.728Z,70.56
2022-09-16T09:31:06.209Z,70.76
2022-09-16T09:32:02.836Z,73.41
2022-09-16T09:33:02.814Z,77.92
2022-09-16T09:34:02.709Z,69.46
2022-09-16T09:35:02.676Z,73.94
2022-09-16T09:36:02.672Z,72.10
2022-09-16T09:37:02.657Z,83.47
2022-09-16T09:38:02.776Z,87.13
2022-09-16T09:39:02.635Z,81.82
2022-09-16T09:40:02.687Z,87.89
2022-09-16T09:41:02.611Z,92.66
2022-09-16T09:42:02.600Z,95.07
2022-09-16T09:43:02.587Z,94.81
2022-09-16T09:44:02.577Z,97.02
2022-09-16T09:45:02.760Z,97.38
2022-09-16T09:46:02.606Z,96.30
2022-09-16T09:47:02.559Z,96.85
2022-09-16T09:48:02.535Z,97.10
2022-09-16T09:49:02.521Z,98.41
2022-09-16T09:50:02.511Z,96.77
2022-09-16T09:51:02.501Z,92.06
2022-09-16T09:52:02.492Z,82.89
2022-09-16T09:53:02.482Z,76.12
2022-09-16T09:54:02.603Z,87.75
2022-09-16T09:55:02.455Z,90.45
2022-09-16T09:56:02.444Z,91.24
2022-09-16T09:57:02.433Z,94.81
2022-09-16T09:58:02.423Z,92.43
2022-09-16T09:59:02.596Z,95.81
2022-09-16T10:00:02.413Z,88.23
2022-09-16T10:01:02.452Z,80.25
2022-09-16T10:02:02.501Z,82.92
2022-09-16T10:03:02.376Z,83.57
2022-09-16T10:04:02.361Z,81.37
2022-09-16T10:05:02.346Z,82.04
2022-09-16T10:06:02.339Z,80.25
2022-09-16T10:08:02.476Z,69.92
2022-09-16T10:09:02.575Z,66.28
2022-09-16T10:10:02.425Z,64.25
2022-09-16T10:11:02.278Z,64.15
2022-09-16T10:12:02.267Z,64.68
2022-09-16T10:13:02.260Z,66.21
2022-09-16T10:14:02.255Z,66.08
2022-09-16T10:15:02.238Z,67.29
2022-09-16T10:16:02.271Z,63.68
2022-09-16T10:17:02.214Z,65.31
2022-09-16T10:18:02.419Z,65.22
2022-09-16T10:19:02.197Z,65.01
2022-09-16T10:20:02.183Z,66.19
2022-09-16T10:21:02.176Z,61.88
2022-09-16T10:22:02.163Z,60.88
2022-09-16T10:23:02.150Z,61.49
2022-09-16T10:24:02.138Z,60.19
2022-09-16T10:25:02.127Z,59.94
2022-09-16T10:26:02.251Z,55.32
2022-09-16T10:27:02.100Z,57.69
2022-09-16T10:28:02.100Z,57.33
2022-09-16T10:29:02.086Z,59.83
2022-09-16T10:30:02.077Z,65.61
2022-09-16T10:31:02.161Z,68.32
2022-09-16T10:32:02.083Z,72.77
2022-09-16T10:33:02.039Z,72.13
2022-09-16T10:34:02.050Z,71.50
2022-09-16T10:35:02.022Z,71.90
2022-09-16T10:36:02.015Z,93.39
2022-09-16T10:37:01.996Z,98.05
2022-09-16T10:38:02.189Z,97.33
2022-09-16T10:39:04.786Z,96.83
2022-09-16T10:40:02.052Z,96.08
2022-09-16T10:41:01.951Z,96.89
2022-09-16T10:42:02.074Z,94.87
2022-09-16T10:43:01.928Z,97.03
2022-09-16T10:44:01.922Z,94.06
2022-09-16T10:45:01.918Z,92.98
2022-09-16T10:46:01.994Z,96.40
2022-09-16T10:47:01.886Z,92.66
2022-09-16T10:48:04.879Z,94.89
2022-09-16T10:49:01.864Z,94.43
2022-09-16T10:50:01.853Z,93.92
2022-09-16T10:51:01.845Z,94.17
2022-09-16T10:52:01.830Z,95.28
2022-09-16T10:53:01.818Z,94.73
2022-09-16T10:54:01.827Z,94.89
2022-09-16T10:55:01.796Z,94.45
2022-09-16T10:56:01.843Z,81.71
2022-09-16T10:57:01.786Z,76.17
2022-09-16T10:58:01.901Z,70.36
2022-09-16T10:59:01.771Z,64.03
2022-09-16T11:00:01.853Z,65.74
2022-09-16T11:01:01.975Z,58.99
2022-09-16T11:02:02.017Z,58.72
2022-09-16T11:03:01.705Z,60.94
2022-09-16T11:04:01.903Z,69.69
2022-09-16T11:05:02.612Z,76.74
2022-09-16T11:06:01.905Z,67.88
2022-09-16T11:07:01.854Z,65.56
2022-09-16T11:08:01.712Z,60.96
2022-09-16T11:09:01.911Z,60.29
2022-09-16T11:10:01.907Z,58.00
2022-09-16T11:11:01.657Z,57.98
2022-09-16T11:12:01.608Z,57.19
2022-09-16T11:13:01.597Z,54.47
2022-09-16T11:14:02.012Z,55.29
2022-09-16T11:15:01.584Z,55.94
2022-09-16T11:16:01.635Z,56.29
2022-09-16T11:17:01.618Z,53.69
2022-09-16T11:18:01.548Z,56.62
2022-09-16T11:19:01.536Z,56.09
2022-09-16T11:20:01.530Z,52.97
2022-09-16T11:21:01.509Z,53.61
2022-09-16T11:22:01.498Z,54.27
2022-09-16T11:23:01.494Z,54.74
2022-09-16T11:24:01.478Z,58.20
2022-09-16T11:25:01.470Z,61.67
2022-09-16T11:26:01.475Z,65.00
2022-09-16T11:27:01.455Z,84.51
2022-09-16T11:28:01.435Z,91.54
2022-09-16T11:29:01.421Z,96.81
2022-09-16T11:30:01.549Z,88.75
2022-09-16T11:31:01.461Z,76.56
2022-09-16T11:32:01.390Z,64.88
2022-09-16T11:33:02.994Z,62.88
2022-09-16T11:34:01.496Z,53.25
2022-09-16T11:35:01.359Z,60.55
2022-09-16T11:36:01.347Z,52.15
2022-09-16T11:37:01.399Z,58.88
2022-09-16T11:38:01.326Z,50.25
2022-09-16T11:39:01.316Z,53.91
2022-09-16T11:40:01.349Z,54.92
2022-09-16T11:41:01.291Z,45.46
2022-09-16T11:42:01.281Z,49.19
2022-09-16T11:43:01.272Z,45.23
2022-09-16T11:44:01.359Z,50.79
2022-09-16T11:45:01.248Z,53.12
2022-09-16T11:46:01.372Z,49.14
2022-09-16T11:47:01.223Z,45.19
2022-09-16T11:48:01.239Z,59.38
2022-09-16T11:49:01.203Z,58.76
2022-09-16T11:50:01.220Z,57.55
2022-09-16T11:51:01.183Z,58.03
2022-09-16T11:52:01.184Z,48.82
2022-09-16T11:53:04.653Z,60.49
2022-09-16T11:54:02.105Z,62.72
2022-09-16T11:55:01.136Z,56.95
2022-09-16T11:56:01.130Z,58.06
2022-09-16T11:57:01.130Z,58.06
2022-09-16T11:58:01.107Z,65.83
2022-09-16T11:59:01.095Z,65.15
2022-09-16T12:00:01.086Z,72.14
2022-09-16T12:01:01.073Z,58.23
2022-09-16T12:02:01.257Z,62.11
2022-09-16T12:03:01.123Z,53.60
2022-09-16T12:04:01.042Z,59.99
2022-09-16T12:05:01.038Z,63.32
2022-09-16T12:06:01.035Z,68.60
2022-09-16T12:07:01.016Z,61.51
2022-09-16T12:08:00.993Z,61.53
2022-09-16T12:09:00.984Z,59.00
2022-09-16T12:10:00.974Z,61.33
2022-09-16T12:11:01.011Z,60.62
2022-09-16T12:12:00.952Z,67.21
2022-09-16T12:13:00.940Z,62.95
2022-09-16T12:14:06.121Z,71.23
2022-09-16T12:15:04.762Z,67.76
2022-09-16T12:16:00.926Z,70.59
2022-09-16T12:17:00.911Z,73.53
2022-09-16T12:18:01.025Z,70.02
2022-09-16T12:19:00.875Z,68.47
2022-09-16T12:20:00.862Z,62.74
2022-09-16T12:21:00.850Z,75.95
2022-09-16T12:22:00.841Z,81.03
2022-09-16T12:23:00.830Z,86.79
2022-09-16T12:24:00.818Z,84.11
2022-09-16T12:25:00.807Z,86.02
2022-09-16T12:26:00.799Z,79.35
2022-09-16T12:27:00.799Z,84.27
2022-09-16T12:28:00.778Z,88.96
2022-09-16T12:29:00.762Z,95.63
2022-09-16T12:30:00.750Z,93.05
2022-09-16T12:31:00.816Z,91.66
2022-09-16T12:32:00.729Z,94.34
2022-09-16T12:33:00.717Z,95.56
2022-09-16T12:34:00.838Z,96.36
2022-09-16T12:35:00.694Z,94.60
2022-09-16T12:36:00.704Z,96.68
2022-09-16T12:37:00.829Z,96.42
2022-09-16T12:38:00.722Z,96.36
2022-09-16T12:39:00.663Z,97.72
2022-09-16T12:40:00.655Z,97.42
2022-09-16T12:41:00.890Z,96.92
2022-09-16T12:42:00.616Z,95.45
2022-09-16T12:43:00.605Z,97.06
2022-09-16T12:44:16.664Z,96.76
2022-09-16T12:45:01.615Z,96.56
2022-09-16T12:46:00.616Z,96.50
2022-09-16T12:47:00.565Z,97.61
2022-09-16T12:48:00.548Z,96.50
2022-09-16T12:49:00.558Z,97.41
2022-09-16T12:50:00.654Z,96.80
2022-09-16T12:51:00.517Z,96.80
2022-09-16T12:52:00.506Z,96.50
2022-09-16T12:53:00.498Z,97.01
2022-09-16T12:54:00.484Z,96.50
2022-09-16T12:55:08.875Z,96.55